createdAt,value
2017-08-20T17:52:15.490Z,75.9
2017-08-20T17:52:56.064Z,76.57
2017-08-20T17:53:36.622Z,76.39
2017-08-20T17:54:17.169Z,76.82
2017-08-20T17:54:57.705Z,77.69
2017-08-20T17:55:38.257Z,77.69
2017-08-20T17:56:18.796Z,78.17
2017-08-20T17:56:59.346Z,78.65
2017-08-20T17:57:39.873Z,78.75
2017-08-20T17:58:20.404Z,78.17
2017-08-20T17:59:00.940Z,78.65
2017-08-20T17:59:41.474Z,78.94
2017-08-20T18:00:22.008Z,78.94
2017-08-20T18:01:02.573Z,79.61
2017-08-20T18:01:43.093Z,79.32
2017-08-20T18:02:23.633Z,79.42
2017-08-20T18:03:04.169Z,80.09
2017-08-20T18:03:44.729Z,80.86
2017-08-20T18:04:25.274Z,80.86
2017-08-20T18:05:05.808Z,80.86
2017-08-20T18:05:46.345Z,81.05
2017-08-20T18:06:26.877Z,81.72
2017-08-20T18:07:07.432Z,82.01
2017-08-20T18:07:47.958Z,81.92
2017-08-20T18:08:28.511Z,82.68
2017-08-20T18:09:09.051Z,82.3
2017-08-20T18:09:49.589Z,82.68
2017-08-20T18:10:30.127Z,82.97
2017-08-20T18:11:10.657Z,83.45
2017-08-20T18:11:51.204Z,83.07
2017-08-20T18:12:31.743Z,82.54
2017-08-20T18:13:12.286Z,82.78
2017-08-20T18:13:52.825Z,82.54
2017-08-20T18:14:33.365Z,82.26
2017-08-20T18:15:13.906Z,83.41
2017-08-20T18:15:54.448Z,83.03
2017-08-20T18:16:34.987Z,83.41
2017-08-20T18:17:15.528Z,83.6
2017-08-20T18:17:56.065Z,83.89
2017-08-20T18:18:36.608Z,84.56
2017-08-20T18:19:17.171Z,84.56
2017-08-20T18:19:57.694Z,85.42
2017-08-20T18:20:38.262Z,85.24
2017-08-20T18:21:18.817Z,86.34
2017-08-20T18:21:59.365Z,86.34
2017-08-20T18:22:39.878Z,87.4
2017-08-20T18:23:20.411Z,87.98
2017-08-20T18:24:01.010Z,88.07
2017-08-20T18:24:41.547Z,88.74
2017-08-20T18:25:22.082Z,88.45
2017-08-20T18:26:02.892Z,89.03
2017-08-20T18:26:43.558Z,89.51
2017-08-20T18:27:24.085Z,89.51
2017-08-20T18:28:04.618Z,89.79
2017-08-20T18:28:45.464Z,90.28
2017-08-20T18:29:26.169Z,90.81
2017-08-20T18:30:06.797Z,90.71
2017-08-20T18:30:47.324Z,91.86
2017-08-20T18:31:27.868Z,92.15
2017-08-20T18:32:09.316Z,92.44
2017-08-20T18:32:50.022Z,92.63
2017-08-20T18:33:31.314Z,93.01
2017-08-20T18:34:12.096Z,93.3
2017-08-20T18:34:52.633Z,93.88
2017-08-20T18:35:33.471Z,94.12
2017-08-20T18:36:14.323Z,94.93
2017-08-20T18:36:54.869Z,95.07
2017-08-20T18:37:37.565Z,95.07
2017-08-20T18:38:18.201Z,95.36
2017-08-20T18:38:58.951Z,96.51
2017-08-20T18:39:39.584Z,96.7
2017-08-20T18:40:20.300Z,97.56
2017-08-20T18:41:01.776Z,97.56
2017-08-20T18:41:42.524Z,97.47
2017-08-20T18:42:23.059Z,97.56
2017-08-20T18:43:03.719Z,98.05
2017-08-20T18:43:44.356Z,99.29
2017-08-20T18:44:25.085Z,99.01
2017-08-20T18:45:05.823Z,99.34
2017-08-20T18:45:47.477Z,99.39
2017-08-20T18:46:28.258Z,99.77
2017-08-20T18:47:08.966Z,99.99
2017-08-20T18:47:49.495Z,99.99
2017-08-20T18:48:30.168Z,99.99
2017-08-20T18:49:10.714Z,99.99
2017-08-20T18:49:51.299Z,99.99
2017-08-20T18:50:31.829Z,99.99
2017-08-20T18:51:12.358Z,99.99
2017-08-20T18:51:52.895Z,99.99
2017-08-20T18:52:33.430Z,99.99
2017-08-20T18:53:14.198Z,99.99
2017-08-20T18:53:54.868Z,99.99
2017-08-20T18:54:35.403Z,99.99
2017-08-20T18:55:15.947Z,99.99
2017-08-20T18:55:56.468Z,99.99
2017-08-20T18:56:37.011Z,99.99
2017-08-20T18:57:17.540Z,99.99
2017-08-20T18:57:58.077Z,99.99
2017-08-20T18:58:38.617Z,99.99
2017-08-20T18:59:19.158Z,99.99
2017-08-20T18:59:59.694Z,99.99
2017-08-20T19:00:40.246Z,99.99
2017-08-20T19:01:20.786Z,99.99
2017-08-20T19:02:01.324Z,99.99
2017-08-20T19:02:41.867Z,99.99
2017-08-20T19:03:22.406Z,99.99
2017-08-20T19:04:02.944Z,99.99
2017-08-20T19:04:43.490Z,99.99
2017-08-20T19:05:24.037Z,99.99
2017-08-20T19:06:04.576Z,99.99
2017-08-20T19:06:45.117Z,99.99
2017-08-20T19:07:25.653Z,99.99
2017-08-20T19:08:06.198Z,99.99
2017-08-20T19:08:46.860Z,99.99
2017-08-20T19:09:27.489Z,99.99
2017-08-20T19:10:08.066Z,99.99
2017-08-20T19:10:48.599Z,99.99
2017-08-20T19:11:29.132Z,99.99
2017-08-20T19:12:09.674Z,99.99
2017-08-20T19:12:50.200Z,99.99
2017-08-20T19:13:30.736Z,99.99
2017-08-20T19:14:11.265Z,99.99
2017-08-20T19:14:51.791Z,99.99
2017-08-20T19:15:32.322Z,99.99
2017-08-20T19:16:12.858Z,99.99
2017-08-20T19:16:53.390Z,99.99
2017-08-20T19:17:33.925Z,99.99
2017-08-20T19:18:14.464Z,99.99
2017-08-20T19:18:55.012Z,99.99
2017-08-20T19:19:35.557Z,99.99
2017-08-20T19:20:16.091Z,99.99
2017-08-20T19:20:56.635Z,99.99
2017-08-20T19:21:37.262Z,99.99
2017-08-20T19:22:17.787Z,99.99
2017-08-20T19:22:58.324Z,99.99
2017-08-20T19:23:38.873Z,99.99
2017-08-20T19:24:19.418Z,99.99
2017-08-20T19:24:59.983Z,99.99
2017-08-20T19:25:40.524Z,99.99
2017-08-20T19:26:21.066Z,99.99
2017-08-20T19:27:01.607Z,99.99
2017-08-20T19:27:42.148Z,99.99
2017-08-20T19:28:22.687Z,99.99
2017-08-20T19:29:03.228Z,99.99
2017-08-20T19:29:43.754Z,99.99
2017-08-20T19:30:24.293Z,99.99
2017-08-20T19:31:04.833Z,99.99
2017-08-20T19:31:45.371Z,99.99
2017-08-20T19:32:25.890Z,99.99
2017-08-20T19:33:06.427Z,99.99
2017-08-20T19:33:46.959Z,99.99
2017-08-20T19:34:27.535Z,99.99
2017-08-20T19:35:08.079Z,99.99
2017-08-20T19:35:48.615Z,99.99
2017-08-20T19:36:29.147Z,99.99
2017-08-20T19:37:09.697Z,99.99
2017-08-20T19:37:50.238Z,99.99
2017-08-20T19:38:30.770Z,99.99
2017-08-20T19:39:11.412Z,99.99
2017-08-20T19:39:51.913Z,99.99
2017-08-20T19:40:32.448Z,99.99
2017-08-20T19:41:12.993Z,99.99
2017-08-20T19:41:53.531Z,99.99
2017-08-20T19:42:34.072Z,99.99
2017-08-20T19:43:14.609Z,99.99
2017-08-20T19:43:55.137Z,99.99
2017-08-20T19:44:35.669Z,99.99
2017-08-20T19:45:16.204Z,99.99
2017-08-20T19:45:56.748Z,99.99
2017-08-20T19:46:37.284Z,99.99
2017-08-20T19:47:17.819Z,99.99
2017-08-20T19:47:58.351Z,99.99
2017-08-20T19:48:38.893Z,99.99
2017-08-20T19:49:19.426Z,99.99
2017-08-20T19:49:59.960Z,99.99
2017-08-20T19:50:40.497Z,99.99
2017-08-20T19:51:21.038Z,99.99
2017-08-20T19:52:01.576Z,99.99
2017-08-20T19:52:42.100Z,99.99
2017-08-20T19:53:22.629Z,99.99
2017-08-20T19:54:03.176Z,99.99
2017-08-20T19:54:43.705Z,99.99
2017-08-20T19:55:24.301Z,99.99
2017-08-20T19:56:04.833Z,99.99
2017-08-20T19:56:45.364Z,99.99
2017-08-20T19:57:25.908Z,99.99
2017-08-20T19:58:06.470Z,99.99
2017-08-20T19:58:47.011Z,99.99
2017-08-20T19:59:27.542Z,99.99
2017-08-20T20:00:08.077Z,99.99
2017-08-20T20:00:48.612Z,99.99
2017-08-20T20:01:29.154Z,99.99
2017-08-20T20:02:09.685Z,99.99
2017-08-20T20:02:50.226Z,99.99
2017-08-20T20:03:30.764Z,99.99
2017-08-20T20:04:11.302Z,99.99
2017-08-20T20:04:51.842Z,99.99
2017-08-20T20:05:32.384Z,99.99
2017-08-20T20:06:12.923Z,99.99
2017-08-20T20:06:53.446Z,99.99
2017-08-20T20:07:33.980Z,99.99
2017-08-20T20:08:14.513Z,99.99
2017-08-20T20:08:55.055Z,99.99
2017-08-20T20:09:35.592Z,99.99
2017-08-20T20:10:16.133Z,99.99
2017-08-20T20:10:56.664Z,99.99
2017-08-20T20:11:37.202Z,99.99
2017-08-20T20:12:17.747Z,99.99
2017-08-20T20:12:58.284Z,99.99
2017-08-20T20:13:38.824Z,99.99
2017-08-20T20:14:19.361Z,99.99
2017-08-20T20:14:59.945Z,99.99
2017-08-20T20:15:40.481Z,99.99
2017-08-20T20:16:21.030Z,99.99
2017-08-20T20:17:01.562Z,99.99
2017-08-20T20:17:42.098Z,99.99
2017-08-20T20:18:22.625Z,99.99
2017-08-20T20:19:03.188Z,99.99
2017-08-20T20:19:43.705Z,99.99
2017-08-20T20:20:24.237Z,99.99
2017-08-20T20:21:04.774Z,99.99
2017-08-20T20:21:45.317Z,99.99
2017-08-20T20:22:25.859Z,99.99
2017-08-20T20:23:06.404Z,99.99
2017-08-20T20:23:46.937Z,99.99
2017-08-20T20:24:27.474Z,99.99
2017-08-20T20:25:08.007Z,99.99
2017-08-20T20:25:48.549Z,99.99
2017-08-20T20:26:29.089Z,99.99
2017-08-20T20:27:09.629Z,99.99
2017-08-20T20:27:50.163Z,99.99
2017-08-20T20:28:30.701Z,99.99
2017-08-20T20:29:11.241Z,99.99
2017-08-20T20:29:51.777Z,99.99
2017-08-20T20:30:32.311Z,99.99
2017-08-20T20:31:13.988Z,99.99
2017-08-20T20:31:54.526Z,99.99
2017-08-20T20:32:35.071Z,99.99
2017-08-20T20:33:15.611Z,99.99
2017-08-20T20:33:56.147Z,99.99
2017-08-20T20:34:36.662Z,99.99
2017-08-20T20:35:17.199Z,99.99
2017-08-20T20:35:57.725Z,99.99
2017-08-20T20:36:38.255Z,99.99
2017-08-20T20:37:18.818Z,99.99
2017-08-20T20:37:59.419Z,99.99
2017-08-20T20:38:39.969Z,99.99
2017-08-20T20:39:20.509Z,99.99
2017-08-20T20:40:01.128Z,99.99
2017-08-20T20:40:41.720Z,99.99
2017-08-20T20:41:22.200Z,99.99
2017-08-20T20:42:02.745Z,99.99
2017-08-20T20:42:43.281Z,99.99
2017-08-20T20:43:23.819Z,99.99
2017-08-20T20:44:04.361Z,99.99
2017-08-20T20:44:44.907Z,99.99
2017-08-20T20:45:25.446Z,99.99
2017-08-20T20:46:05.985Z,99.99
2017-08-20T20:46:46.520Z,99.99
2017-08-20T20:47:27.064Z,99.99
2017-08-20T20:48:07.657Z,99.99
2017-08-20T20:48:48.201Z,99.99
2017-08-20T20:49:28.776Z,99.99
2017-08-20T20:50:09.316Z,99.99
2017-08-20T20:50:49.856Z,99.99
2017-08-20T20:51:30.394Z,99.99
2017-08-20T20:52:10.936Z,99.99
2017-08-20T20:52:51.477Z,99.99
2017-08-20T20:53:32.012Z,99.99
2017-08-20T20:54:12.549Z,99.99
2017-08-20T20:54:53.087Z,99.99
2017-08-20T20:55:33.620Z,99.99
2017-08-20T20:56:14.177Z,99.99
2017-08-20T20:56:54.703Z,99.99
2017-08-20T20:57:35.246Z,99.99
2017-08-20T20:58:15.786Z,99.99
2017-08-20T20:58:56.329Z,99.99
2017-08-20T20:59:36.868Z,99.99
2017-08-20T21:00:17.414Z,99.99
2017-08-20T21:00:57.947Z,99.99
2017-08-20T21:01:38.487Z,99.99
2017-08-20T21:02:19.010Z,99.99
2017-08-20T21:02:59.552Z,99.99
2017-08-20T21:03:40.093Z,99.99
2017-08-20T21:04:20.633Z,99.99
2017-08-20T21:05:01.191Z,99.99
2017-08-20T21:05:41.711Z,99.99
2017-08-20T21:06:22.232Z,99.99
2017-08-20T21:07:02.762Z,99.99
2017-08-20T21:07:43.305Z,99.99
2017-08-20T21:08:23.846Z,99.99
2017-08-20T21:09:04.384Z,99.99
2017-08-20T21:09:44.928Z,99.99
2017-08-20T21:10:25.463Z,99.99
2017-08-20T21:11:06.001Z,99.99
2017-08-20T21:11:46.530Z,99.99
2017-08-20T21:12:27.070Z,99.99
2017-08-20T21:13:07.611Z,99.99
2017-08-20T21:13:48.152Z,99.99
2017-08-20T21:14:28.700Z,99.99
2017-08-20T21:15:09.239Z,99.99
2017-08-20T21:15:49.783Z,99.99
2017-08-20T21:16:30.309Z,99.99
2017-08-20T21:17:10.856Z,99.99
2017-08-20T21:17:51.389Z,99.99
2017-08-20T21:18:31.914Z,99.99
2017-08-20T21:19:12.449Z,99.99
2017-08-20T21:19:52.987Z,99.99
2017-08-20T21:20:33.525Z,99.99
2017-08-20T21:21:14.047Z,99.99
2017-08-20T21:21:54.596Z,99.99
2017-08-20T21:22:35.127Z,99.99
2017-08-20T21:23:15.669Z,99.99
2017-08-20T21:23:56.203Z,99.99
2017-08-20T21:24:36.739Z,99.99
2017-08-20T21:25:17.273Z,99.99
2017-08-20T21:25:57.810Z,99.99
2017-08-20T21:26:38.350Z,99.99
2017-08-20T21:27:18.877Z,99.99
2017-08-20T21:27:59.416Z,99.99
2017-08-20T21:28:39.960Z,99.99
2017-08-20T21:29:20.497Z,99.99
2017-08-20T21:30:01.024Z,99.99
2017-08-20T21:30:41.562Z,99.99
2017-08-20T21:31:22.100Z,99.99
2017-08-20T21:32:02.636Z,99.99
2017-08-20T21:32:43.176Z,99.99
2017-08-20T21:33:23.714Z,99.99
2017-08-20T21:34:04.251Z,99.99
2017-08-20T21:34:44.780Z,99.99
2017-08-20T21:35:25.319Z,99.99
2017-08-20T21:36:05.853Z,99.99
2017-08-20T21:36:46.391Z,99.99
2017-08-20T21:37:26.930Z,99.99
2017-08-20T21:38:07.484Z,99.99
2017-08-20T21:38:48.019Z,99.99
2017-08-20T21:39:28.564Z,99.99
2017-08-20T21:40:09.100Z,99.99
2017-08-20T21:40:49.632Z,99.99
2017-08-20T21:41:30.164Z,99.99
2017-08-20T21:42:10.700Z,99.99
2017-08-20T21:42:51.237Z,99.99
2017-08-20T21:43:31.773Z,99.99
2017-08-20T21:44:12.315Z,99.99
2017-08-20T21:44:52.852Z,99.99
2017-08-20T21:45:33.398Z,99.99
2017-08-20T21:46:13.932Z,99.99
2017-08-20T21:46:54.473Z,99.99
2017-08-20T21:47:35.010Z,99.99
2017-08-20T21:48:15.546Z,99.99
2017-08-20T21:48:56.085Z,99.99
2017-08-20T21:49:36.628Z,99.99
2017-08-20T21:50:17.170Z,99.99
2017-08-20T21:50:57.714Z,99.99
2017-08-20T21:51:38.245Z,99.99
2017-08-20T21:52:18.765Z,99.99
2017-08-20T21:52:59.302Z,99.99
2017-08-20T21:53:39.822Z,99.99
2017-08-20T21:54:20.357Z,99.99
2017-08-20T21:55:02.575Z,99.99
2017-08-20T21:55:43.140Z,99.99
2017-08-20T21:56:23.664Z,99.99
2017-08-20T21:57:04.207Z,99.99
2017-08-20T21:57:44.735Z,99.99
2017-08-20T21:58:25.267Z,99.99
2017-08-20T21:59:05.809Z,99.99
2017-08-20T21:59:46.353Z,99.99
2017-08-20T22:00:26.895Z,99.99
2017-08-20T22:01:07.433Z,99.99
2017-08-20T22:01:47.972Z,99.99
2017-08-20T22:02:28.508Z,99.99
2017-08-20T22:03:09.039Z,99.99
2017-08-20T22:03:49.585Z,99.99
2017-08-20T22:04:30.117Z,99.99
2017-08-20T22:05:10.648Z,99.99
2017-08-20T22:05:51.187Z,99.99
2017-08-20T22:06:31.720Z,99.99
2017-08-20T22:07:12.259Z,99.99
2017-08-20T22:07:52.802Z,99.99
2017-08-20T22:08:33.341Z,99.99
2017-08-20T22:09:13.883Z,99.99
2017-08-20T22:09:54.425Z,99.99
2017-08-20T22:10:34.963Z,99.99
2017-08-20T22:11:15.501Z,99.99
2017-08-20T22:11:56.037Z,99.99
2017-08-20T22:12:36.573Z,99.99
2017-08-20T22:13:17.117Z,99.99
2017-08-20T22:13:57.648Z,99.99
2017-08-20T22:14:38.185Z,99.99
2017-08-20T22:15:18.707Z,99.99
2017-08-20T22:15:59.245Z,99.99
2017-08-20T22:16:39.783Z,99.99
2017-08-20T22:17:20.325Z,99.99
2017-08-20T22:18:00.858Z,99.99
2017-08-20T22:18:41.394Z,99.99
2017-08-20T22:19:21.930Z,99.99
2017-08-20T22:20:02.460Z,99.99
2017-08-20T22:20:42.998Z,99.99
2017-08-20T22:21:23.536Z,99.99
2017-08-20T22:22:04.077Z,99.99
2017-08-20T22:22:44.613Z,99.99
2017-08-20T22:23:25.140Z,99.99
2017-08-20T22:24:05.688Z,99.99
2017-08-20T22:24:46.222Z,99.99
2017-08-20T22:25:26.762Z,99.99
2017-08-20T22:26:07.302Z,99.99
2017-08-20T22:26:47.841Z,99.99
2017-08-20T22:27:28.381Z,99.99
2017-08-20T22:28:08.920Z,99.99
2017-08-20T22:28:49.457Z,99.99
2017-08-20T22:29:29.991Z,99.99
2017-08-20T22:30:10.531Z,99.99
2017-08-20T22:30:51.069Z,99.99
2017-08-20T22:31:31.607Z,99.99
2017-08-20T22:32:12.145Z,99.99
2017-08-20T22:32:52.679Z,99.99
2017-08-20T22:33:33.212Z,99.99
2017-08-20T22:34:13.742Z,99.99
2017-08-20T22:34:54.282Z,99.99
2017-08-20T22:35:34.818Z,99.99
2017-08-20T22:36:15.359Z,99.99
2017-08-20T22:36:55.899Z,99.99
2017-08-20T22:37:36.440Z,99.99
2017-08-20T22:38:16.969Z,99.99
2017-08-20T22:38:57.513Z,99.99
2017-08-20T22:39:38.116Z,99.99
2017-08-20T22:40:18.588Z,99.99
2017-08-20T22:40:59.128Z,99.99
2017-08-20T22:41:39.665Z,99.99
2017-08-20T22:42:20.192Z,99.99
2017-08-20T22:43:00.734Z,99.99
2017-08-20T22:43:41.270Z,99.99
2017-08-20T22:44:21.805Z,99.99
2017-08-20T22:45:02.344Z,99.99
2017-08-20T22:45:42.881Z,99.99
2017-08-20T22:46:23.412Z,99.99
2017-08-20T22:47:03.950Z,99.99
2017-08-20T22:47:44.480Z,99.99
2017-08-20T22:48:25.025Z,99.99
2017-08-20T22:49:05.555Z,99.99
2017-08-20T22:49:46.097Z,99.99
2017-08-20T22:50:26.636Z,99.99
2017-08-20T22:51:07.172Z,99.99
2017-08-20T22:51:47.710Z,99.99
2017-08-20T22:52:28.242Z,99.99
2017-08-20T22:53:08.779Z,99.99
2017-08-20T22:53:49.344Z,99.99
2017-08-20T22:54:29.878Z,99.99
2017-08-20T22:55:10.415Z,99.99
2017-08-20T22:55:50.953Z,99.99
2017-08-20T22:56:31.489Z,99.99
2017-08-20T22:57:12.024Z,99.99
2017-08-20T22:57:52.564Z,99.99
2017-08-20T22:58:33.096Z,99.99
2017-08-20T22:59:13.633Z,99.99
2017-08-20T22:59:54.172Z,99.99
2017-08-20T23:00:34.702Z,99.99
2017-08-20T23:01:15.243Z,99.99
2017-08-20T23:01:55.820Z,99.99
2017-08-20T23:02:36.348Z,99.99
2017-08-20T23:03:16.896Z,99.99
2017-08-20T23:03:57.434Z,99.99
2017-08-20T23:04:37.967Z,99.99
2017-08-20T23:05:18.505Z,99.99
2017-08-20T23:05:59.024Z,99.99
2017-08-20T23:06:39.562Z,99.99
2017-08-20T23:07:20.097Z,99.99
2017-08-20T23:08:00.637Z,99.99
2017-08-20T23:08:41.172Z,99.99
2017-08-20T23:09:21.714Z,99.99
2017-08-20T23:10:02.250Z,99.99
2017-08-20T23:10:42.784Z,99.99
2017-08-20T23:11:23.326Z,99.99
2017-08-20T23:12:03.866Z,99.99
2017-08-20T23:12:44.409Z,99.99
2017-08-20T23:13:24.954Z,99.99
2017-08-20T23:14:05.495Z,99.99
2017-08-20T23:14:46.036Z,99.99
2017-08-20T23:15:26.564Z,99.99
2017-08-20T23:16:07.104Z,99.99
2017-08-20T23:16:47.652Z,99.99
2017-08-20T23:17:28.211Z,99.99
2017-08-20T23:18:08.721Z,99.99
2017-08-20T23:18:49.259Z,99.99
2017-08-20T23:19:29.797Z,99.99
2017-08-20T23:20:10.338Z,99.99
2017-08-20T23:20:50.877Z,99.99
2017-08-20T23:21:31.416Z,99.99
2017-08-20T23:22:11.954Z,99.99
2017-08-20T23:22:52.490Z,99.99
2017-08-20T23:23:33.028Z,99.99
2017-08-20T23:24:13.563Z,99.99
2017-08-20T23:24:54.105Z,99.99
2017-08-20T23:25:34.643Z,99.99
2017-08-20T23:26:15.186Z,99.99
2017-08-20T23:26:55.722Z,99.99
2017-08-20T23:27:36.261Z,99.99
2017-08-20T23:28:16.791Z,99.99
2017-08-20T23:28:57.330Z,99.99
2017-08-20T23:29:37.870Z,99.99
2017-08-20T23:30:18.413Z,99.99
2017-08-20T23:30:58.958Z,99.99
2017-08-20T23:31:39.498Z,99.99
2017-08-20T23:32:20.037Z,99.99
2017-08-20T23:33:00.566Z,99.99
2017-08-20T23:33:41.097Z,99.99
2017-08-20T23:34:21.633Z,99.99
2017-08-20T23:35:02.174Z,99.99
2017-08-20T23:35:42.710Z,99.99
2017-08-20T23:36:23.254Z,99.99
2017-08-20T23:37:03.793Z,99.99
2017-08-20T23:37:44.332Z,99.99
2017-08-20T23:38:24.872Z,99.99
2017-08-20T23:39:05.416Z,99.99
2017-08-20T23:39:45.950Z,99.99
2017-08-20T23:40:26.488Z,99.99
2017-08-20T23:41:07.032Z,99.99
2017-08-20T23:41:47.570Z,99.99
2017-08-20T23:42:28.111Z,99.99
2017-08-20T23:43:08.650Z,99.99
2017-08-20T23:43:49.190Z,99.99
2017-08-20T23:44:29.728Z,99.99
2017-08-20T23:45:10.269Z,99.99
2017-08-20T23:45:50.804Z,99.99
2017-08-20T23:46:31.335Z,99.99
2017-08-20T23:47:11.886Z,99.99
2017-08-20T23:47:52.424Z,99.99
2017-08-20T23:48:32.964Z,99.99
2017-08-20T23:49:13.507Z,99.99
2017-08-20T23:49:54.035Z,99.99
2017-08-20T23:50:34.566Z,99.99
2017-08-20T23:51:15.111Z,99.99
2017-08-20T23:51:55.643Z,99.99
2017-08-20T23:52:36.184Z,99.99
2017-08-20T23:53:16.732Z,99.99
2017-08-20T23:53:57.268Z,99.99
2017-08-20T23:54:37.808Z,99.99
2017-08-20T23:55:18.341Z,99.99
2017-08-20T23:55:58.906Z,99.99
2017-08-20T23:56:39.418Z,99.99
2017-08-20T23:57:19.955Z,99.99
2017-08-20T23:58:00.496Z,99.99
2017-08-20T23:58:41.034Z,99.99
2017-08-20T23:59:21.573Z,99.99
